Terminal Aerodrome Forecast
Issued by NWS

Home | Current Version | Previous Version | Text Only | Print | Product List | Glossary On
Versions: 1 2 3 4 5 6 7 8 9 10 11 12 13 14
155
FTUS45 KFGZ 040716 AAA
TAFSEZ
TAF AMD
KSEZ 040716Z 0407/0506 VRB05KT P6SM FEW250
     FM041800 17015G25KT P6SM FEW250
     FM050300 05006KT P6SM SCT250=

USA.gov is the U.S. government's official web portal to all federal, state and local government web resources and services.